createdAt,value
2022-08-24T00:02:01.602Z,16.10
2022-08-24T00:04:31.993Z,16.10
2022-08-24T00:07:01.350Z,16.00
2022-08-24T00:09:31.253Z,16.00
2022-08-24T00:11:58.242Z,15.90
2022-08-24T00:14:26.638Z,15.90
2022-08-24T00:16:55.028Z,15.90
2022-08-24T00:19:22.767Z,15.90
2022-08-24T00:21:52.220Z,15.90
2022-08-24T00:24:20.214Z,15.80
2022-08-24T00:26:48.901Z,15.80
2022-08-24T00:29:17.914Z,15.80
2022-08-24T00:31:45.579Z,15.80
2022-08-24T00:34:14.017Z,15.70
2022-08-24T00:36:42.585Z,15.70
2022-08-24T00:39:09.861Z,15.60
2022-08-24T00:41:41.897Z,15.50
2022-08-24T00:44:11.527Z,15.50
2022-08-24T00:46:48.196Z,15.50
2022-08-24T00:49:37.542Z,15.40
2022-08-24T00:52:21.879Z,15.40
2022-08-24T00:54:56.802Z,15.40
2022-08-24T00:57:34.979Z,15.40
2022-08-24T01:00:10.314Z,15.30
2022-08-24T01:02:42.241Z,15.30
2022-08-24T01:05:12.307Z,15.30
2022-08-24T01:07:40.670Z,15.30
2022-08-24T01:10:13.712Z,15.20
2022-08-24T01:12:48.165Z,15.20
2022-08-24T01:15:29.733Z,15.20
2022-08-24T01:18:17.046Z,15.20
2022-08-24T01:20:49.526Z,15.20
2022-08-24T01:23:43.981Z,15.20
2022-08-24T01:26:19.508Z,15.10
2022-08-24T01:28:52.121Z,15.10
2022-08-24T01:31:22.294Z,15.10
2022-08-24T01:33:54.550Z,15.00
2022-08-24T01:36:41.074Z,15.00
2022-08-24T01:39:15.300Z,15.00
2022-08-24T01:41:43.489Z,15.00
2022-08-24T01:44:10.951Z,14.90
2022-08-24T01:46:38.657Z,15.00
2022-08-24T01:49:06.241Z,14.90
2022-08-24T01:51:35.101Z,14.80
2022-08-24T01:54:04.855Z,14.80
2022-08-24T01:56:34.345Z,14.80
2022-08-24T01:59:02.325Z,14.80
2022-08-24T02:01:32.004Z,14.80
2022-08-24T02:04:02.528Z,14.80
2022-08-24T02:06:29.826Z,14.70
2022-08-24T02:08:57.617Z,14.60
2022-08-24T02:11:27.281Z,14.60
2022-08-24T02:13:55.153Z,14.60
2022-08-24T02:16:24.187Z,14.60
2022-08-24T02:18:51.206Z,14.50
2022-08-24T02:21:18.895Z,14.50
2022-08-24T02:23:46.537Z,14.40
2022-08-24T02:26:15.009Z,14.40
2022-08-24T02:28:42.007Z,14.40
2022-08-24T02:31:13.533Z,14.40
2022-08-24T02:33:41.922Z,14.30
2022-08-24T02:36:25.216Z,14.30
2022-08-24T02:38:54.805Z,14.30
2022-08-24T02:41:25.173Z,14.20
2022-08-24T02:43:54.962Z,14.20
2022-08-24T02:46:29.844Z,14.20
2022-08-24T02:49:11.327Z,14.10
2022-08-24T02:51:44.506Z,14.10
2022-08-24T02:54:18.017Z,14.10
2022-08-24T02:56:46.548Z,14.00
2022-08-24T02:59:16.360Z,14.10
2022-08-24T03:01:45.231Z,14.10
2022-08-24T03:04:12.945Z,14.10
2022-08-24T03:06:39.885Z,14.10
2022-08-24T03:09:07.486Z,14.10
2022-08-24T03:11:34.608Z,14.00
2022-08-24T03:14:03.227Z,14.00
2022-08-24T03:16:31.713Z,14.00
2022-08-24T03:18:59.134Z,14.00
2022-08-24T03:21:26.818Z,14.00
2022-08-24T03:23:53.853Z,14.00
2022-08-24T03:26:22.945Z,14.00
2022-08-24T03:28:51.411Z,13.90
2022-08-24T03:31:19.979Z,13.90
2022-08-24T03:33:47.527Z,13.90
2022-08-24T03:36:15.463Z,14.00
2022-08-24T03:38:43.649Z,13.90
2022-08-24T03:41:12.098Z,13.90
2022-08-24T03:43:46.786Z,13.80
2022-08-24T03:46:25.408Z,13.80
2022-08-24T03:48:54.874Z,13.70
2022-08-24T03:51:28.374Z,13.70
2022-08-24T03:53:56.094Z,13.80
2022-08-24T03:56:23.973Z,13.80
2022-08-24T03:58:51.399Z,13.80
2022-08-24T04:01:18.989Z,13.70
2022-08-24T04:03:49.153Z,13.70
2022-08-24T04:06:19.558Z,13.70
2022-08-24T04:08:46.519Z,13.70
2022-08-24T04:11:18.115Z,13.70
2022-08-24T04:13:46.836Z,13.70
2022-08-24T04:16:16.849Z,13.70
2022-08-24T04:18:44.905Z,13.70
2022-08-24T04:21:28.653Z,13.70
2022-08-24T04:23:56.701Z,13.70
2022-08-24T04:26:44.018Z,13.70
2022-08-24T04:29:14.849Z,13.70
2022-08-24T04:31:43.368Z,13.70
2022-08-24T04:34:11.706Z,13.80
2022-08-24T04:36:44.991Z,13.80
2022-08-24T04:39:13.348Z,13.90
2022-08-24T04:41:42.720Z,13.90
2022-08-24T04:44:09.888Z,13.90
2022-08-24T04:46:36.860Z,13.90
2022-08-24T04:49:04.476Z,13.90
2022-08-24T04:51:36.200Z,13.90
2022-08-24T04:54:04.565Z,14.00
2022-08-24T04:56:32.990Z,14.10
2022-08-24T04:59:01.726Z,14.10
2022-08-24T05:01:32.218Z,14.10
2022-08-24T05:04:00.521Z,14.10
2022-08-24T05:06:30.374Z,14.20
2022-08-24T05:09:00.476Z,14.20
2022-08-24T05:11:29.678Z,14.30
2022-08-24T05:13:59.641Z,14.30
2022-08-24T05:16:27.781Z,14.30
2022-08-24T05:18:56.018Z,14.40
2022-08-24T05:21:26.035Z,14.40
2022-08-24T05:23:54.442Z,14.50
2022-08-24T05:26:25.098Z,14.50
2022-08-24T05:28:55.471Z,14.50
2022-08-24T05:31:25.485Z,14.60
2022-08-24T05:33:53.709Z,14.60
2022-08-24T05:36:26.174Z,14.70
2022-08-24T05:38:55.849Z,14.70
2022-08-24T05:41:24.395Z,14.80
2022-08-24T05:43:52.620Z,14.80
2022-08-24T05:46:21.107Z,14.90
2022-08-24T05:48:52.692Z,14.90
2022-08-24T05:51:21.449Z,15.00
2022-08-24T05:53:50.840Z,15.00
2022-08-24T05:56:20.867Z,15.10
2022-08-24T05:58:49.644Z,15.10
2022-08-24T06:01:23.147Z,15.20
2022-08-24T06:03:54.137Z,15.20
2022-08-24T06:06:23.622Z,15.30
2022-08-24T06:08:53.622Z,15.30
2022-08-24T06:11:30.280Z,15.40
2022-08-24T06:14:07.935Z,15.40
2022-08-24T06:16:37.304Z,15.50
2022-08-24T06:19:07.346Z,15.50
2022-08-24T06:21:34.445Z,15.60
2022-08-24T06:24:02.798Z,15.70
2022-08-24T06:26:50.289Z,15.70
2022-08-24T06:29:20.446Z,15.80
2022-08-24T06:31:54.275Z,15.80
2022-08-24T06:34:26.003Z,15.90
2022-08-24T06:36:54.503Z,15.90
2022-08-24T06:39:21.544Z,16.10
2022-08-24T06:41:49.831Z,16.10
2022-08-24T06:44:17.426Z,16.20
2022-08-24T06:46:45.475Z,16.20
2022-08-24T06:49:16.013Z,16.30
2022-08-24T06:51:50.443Z,16.40
2022-08-24T06:54:21.004Z,16.50
2022-08-24T06:56:50.118Z,16.60
2022-08-24T06:59:19.063Z,16.70
2022-08-24T07:01:47.439Z,16.80
2022-08-24T07:04:15.105Z,16.90
2022-08-24T07:06:44.449Z,16.90
2022-08-24T07:09:12.280Z,17.00
2022-08-24T07:11:41.928Z,17.10
2022-08-24T07:14:11.961Z,17.10
2022-08-24T07:16:39.022Z,17.20
2022-08-24T07:19:07.741Z,17.30
2022-08-24T07:21:36.121Z,17.40
2022-08-24T07:24:07.158Z,17.50
2022-08-24T07:26:37.760Z,17.50
2022-08-24T07:29:30.338Z,17.60
2022-08-24T07:32:01.727Z,17.60
2022-08-24T07:34:30.069Z,17.70
2022-08-24T07:36:59.998Z,17.70
2022-08-24T07:39:28.500Z,17.80
2022-08-24T07:42:16.884Z,17.80
2022-08-24T07:44:45.862Z,17.90
2022-08-24T07:47:37.039Z,18.00
2022-08-24T07:50:04.409Z,18.00
2022-08-24T07:52:32.755Z,18.00
2022-08-24T07:55:01.518Z,18.00
2022-08-24T07:57:28.621Z,18.10
2022-08-24T07:59:59.776Z,18.20
2022-08-24T08:02:29.315Z,18.30
2022-08-24T08:05:01.898Z,18.30
2022-08-24T08:07:31.067Z,18.30
2022-08-24T08:10:02.060Z,18.40
2022-08-24T08:12:30.355Z,18.40
2022-08-24T08:14:58.661Z,18.50
2022-08-24T08:17:27.323Z,18.60
2022-08-24T08:19:56.451Z,18.60
2022-08-24T08:22:44.839Z,18.60
2022-08-24T08:25:11.870Z,18.70
2022-08-24T08:27:40.242Z,18.80
2022-08-24T08:30:09.173Z,18.90
2022-08-24T08:32:37.611Z,19.00
2022-08-24T08:35:06.755Z,19.20
2022-08-24T08:40:23.789Z,19.30
2022-08-24T08:43:04.083Z,19.30
2022-08-24T08:45:41.566Z,19.40
2022-08-24T08:48:44.601Z,19.40
2022-08-24T08:51:46.962Z,19.50
2022-08-24T08:54:38.896Z,19.60
2022-08-24T08:57:26.674Z,19.90
2022-08-24T09:00:05.655Z,20.10
2022-08-24T09:02:58.004Z,20.20
2022-08-24T09:06:05.215Z,20.40
2022-08-24T09:09:01.050Z,20.50
2022-08-24T09:11:44.511Z,20.60
2022-08-24T09:14:42.845Z,20.70
2022-08-24T09:17:27.493Z,20.80
2022-08-24T09:20:25.677Z,20.90
2022-08-24T09:23:21.450Z,21.10
2022-08-24T09:25:55.961Z,21.20
2022-08-24T09:28:43.794Z,21.50
2022-08-24T09:31:23.773Z,21.50
2022-08-24T09:34:08.386Z,21.60
2022-08-24T09:36:47.031Z,21.60
2022-08-24T09:39:36.909Z,21.60
2022-08-24T09:42:13.924Z,21.60
2022-08-24T09:44:50.677Z,21.60
2022-08-24T09:47:52.925Z,21.80
2022-08-24T09:50:39.607Z,21.80
2022-08-24T09:53:16.579Z,22.10
2022-08-24T09:55:56.350Z,22.30
2022-08-24T09:58:28.346Z,22.60
2022-08-24T10:01:15.282Z,22.70
2022-08-24T10:04:11.340Z,22.90
2022-08-24T10:07:04.895Z,23.10
2022-08-24T10:10:00.683Z,23.10
2022-08-24T10:12:47.224Z,23.30
2022-08-24T10:15:28.035Z,23.40
2022-08-24T10:17:56.749Z,23.40
2022-08-24T10:20:48.766Z,23.40
2022-08-24T10:23:37.366Z,23.40
2022-08-24T10:26:23.529Z,23.30
2022-08-24T10:29:02.697Z,23.20
2022-08-24T10:31:38.767Z,23.20
2022-08-24T10:34:28.550Z,23.10
2022-08-24T10:37:05.548Z,23.10
2022-08-24T10:39:53.093Z,23.10
2022-08-24T10:43:04.857Z,23.10
2022-08-24T10:45:33.781Z,23.20
2022-08-24T10:48:21.530Z,23.10
2022-08-24T10:51:08.553Z,23.20
2022-08-24T10:53:37.677Z,23.20
2022-08-24T10:56:06.046Z,23.30
2022-08-24T10:58:46.641Z,23.20
2022-08-24T11:01:20.032Z,23.20
2022-08-24T11:03:52.072Z,23.20
2022-08-24T11:06:21.182Z,23.30
2022-08-24T11:08:59.806Z,23.20
2022-08-24T11:11:36.731Z,23.30
2022-08-24T11:14:29.577Z,23.40
2022-08-24T11:17:28.653Z,23.50
2022-08-24T11:19:57.353Z,23.60
2022-08-24T11:22:32.042Z,23.90
2022-08-24T11:25:15.621Z,23.90
2022-08-24T11:27:48.191Z,24.10
2022-08-24T11:30:19.410Z,24.30
2022-08-24T11:32:50.313Z,24.40
2022-08-24T11:35:21.420Z,24.50
2022-08-24T11:37:53.016Z,24.60
2022-08-24T11:40:23.570Z,24.80
2022-08-24T11:43:35.329Z,24.90
2022-08-24T11:46:04.238Z,25.20
2022-08-24T11:48:44.410Z,25.20
2022-08-24T11:51:36.443Z,25.40
2022-08-24T11:54:27.158Z,25.40
2022-08-24T11:57:32.358Z,25.60
2022-08-24T12:00:08.829Z,25.60
2022-08-24T12:03:03.655Z,25.60
2022-08-24T12:05:40.085Z,25.20
2022-08-24T12:08:30.111Z,25.00
2022-08-24T12:11:04.558Z,24.90
2022-08-24T12:13:38.979Z,25.10
2022-08-24T12:16:16.792Z,25.30
2022-08-24T12:18:44.978Z,25.40
2022-08-24T12:21:19.809Z,25.70
2022-08-24T12:23:52.143Z,25.80
2022-08-24T12:26:33.060Z,26.10
2022-08-24T12:29:31.576Z,26.30
2022-08-24T12:32:12.115Z,26.40
2022-08-24T12:34:51.436Z,26.60
2022-08-24T12:37:41.975Z,26.70
2022-08-24T12:40:47.366Z,26.80
2022-08-24T12:43:50.953Z,26.90
2022-08-24T12:46:26.791Z,26.90
2022-08-24T12:49:10.952Z,26.70
2022-08-24T12:52:01.546Z,26.70
2022-08-24T12:54:33.185Z,26.70
2022-08-24T12:57:51.739Z,26.80
2022-08-24T13:00:36.984Z,26.90
2022-08-24T13:03:09.014Z,27.00
2022-08-24T13:05:48.569Z,27.00
2022-08-24T13:08:35.565Z,26.90
2022-08-24T13:11:07.555Z,27.10
2022-08-24T13:13:40.546Z,26.90
2022-08-24T13:16:31.334Z,27.00
2022-08-24T13:19:34.957Z,27.20
2022-08-24T13:22:12.412Z,27.20
2022-08-24T13:24:40.206Z,27.30
2022-08-24T13:27:11.699Z,27.30
2022-08-24T13:29:49.473Z,27.30
2022-08-24T13:32:29.358Z,27.30
2022-08-24T13:34:59.196Z,27.30
2022-08-24T13:37:28.774Z,27.30
2022-08-24T13:40:02.886Z,27.30
2022-08-24T13:42:43.314Z,27.40
2022-08-24T13:45:23.238Z,27.30
2022-08-24T13:48:04.289Z,27.30
2022-08-24T13:51:20.582Z,27.30
2022-08-24T13:53:53.452Z,27.30
2022-08-24T13:56:45.771Z,27.20
2022-08-24T13:59:38.389Z,27.30
2022-08-24T14:02:15.996Z,27.40
2022-08-24T14:05:18.341Z,27.30
2022-08-24T14:08:09.781Z,27.20
2022-08-24T14:10:41.933Z,27.50
2022-08-24T14:13:42.265Z,27.50
2022-08-24T14:16:31.385Z,27.50
2022-08-24T14:19:15.144Z,27.60
2022-08-24T14:22:17.821Z,27.90
2022-08-24T14:25:18.517Z,27.70
2022-08-24T14:27:48.134Z,27.90
2022-08-24T14:30:19.158Z,27.90
2022-08-24T14:32:46.737Z,27.90
2022-08-24T14:35:36.148Z,28.00
2022-08-24T14:38:25.221Z,28.10
2022-08-24T14:41:34.130Z,28.10
2022-08-24T14:44:12.973Z,28.00
2022-08-24T14:47:02.557Z,28.00
2022-08-24T14:49:46.822Z,28.00
2022-08-24T14:52:21.056Z,27.90
2022-08-24T14:55:04.202Z,27.90
2022-08-24T14:57:34.993Z,27.80
2022-08-24T15:00:20.660Z,27.70
2022-08-24T15:02:51.351Z,27.50
2022-08-24T15:05:25.545Z,27.40
2022-08-24T15:07:57.893Z,27.30
2022-08-24T15:10:33.958Z,27.30
2022-08-24T15:13:14.001Z,27.40
2022-08-24T15:16:10.584Z,27.40
2022-08-24T15:18:53.213Z,27.40
2022-08-24T15:21:43.265Z,27.30
2022-08-24T15:24:17.652Z,27.20
2022-08-24T15:26:54.782Z,27.10
2022-08-24T15:29:30.506Z,26.90
2022-08-24T15:32:09.208Z,26.90
2022-08-24T15:34:53.335Z,26.90
2022-08-24T15:37:33.249Z,26.80
2022-08-24T15:40:05.339Z,26.50
2022-08-24T15:42:36.476Z,26.30
2022-08-24T15:45:05.677Z,26.10
2022-08-24T15:47:37.232Z,26.00
2022-08-24T15:50:29.111Z,25.80
2022-08-24T15:53:13.348Z,25.60
2022-08-24T15:55:45.052Z,25.40
2022-08-24T15:58:32.079Z,25.20
2022-08-24T16:01:28.186Z,25.00
2022-08-24T16:04:05.354Z,24.90
2022-08-24T16:06:32.847Z,24.80
2022-08-24T16:09:36.163Z,24.70
2022-08-24T16:12:16.602Z,24.50
2022-08-24T16:14:48.991Z,24.40
2022-08-24T16:17:30.593Z,24.30
2022-08-24T16:20:01.901Z,24.10
2022-08-24T16:22:36.617Z,24.00
2022-08-24T16:25:27.254Z,23.90
2022-08-24T16:28:11.347Z,23.80
2022-08-24T16:30:47.559Z,23.60
2022-08-24T16:33:30.157Z,23.50
2022-08-24T16:36:00.105Z,23.30
2022-08-24T16:38:33.978Z,23.20
2022-08-24T16:41:06.418Z,23.10
2022-08-24T16:43:36.026Z,23.00
2022-08-24T16:46:08.303Z,22.80
2022-08-24T16:48:36.249Z,22.80
2022-08-24T16:51:04.443Z,22.60
2022-08-24T16:53:33.415Z,22.60
2022-08-24T16:56:00.461Z,22.50
2022-08-24T16:58:32.969Z,22.40
2022-08-24T17:01:02.579Z,22.30
2022-08-24T17:03:31.815Z,22.20
2022-08-24T17:06:00.003Z,22.10
2022-08-24T17:08:29.564Z,22.10
2022-08-24T17:10:58.053Z,22.10
2022-08-24T17:13:48.481Z,22.10
2022-08-24T17:16:12.984Z,22.10
2022-08-24T17:18:41.645Z,22.00
2022-08-24T17:21:10.092Z,21.90
2022-08-24T17:23:41.464Z,21.90
2022-08-24T17:26:20.964Z,21.90
2022-08-24T17:38:00.833Z,21.70
2022-08-24T17:40:32.108Z,21.60
2022-08-24T17:46:14.429Z,21.50
2022-08-24T17:48:44.860Z,21.50
2022-08-24T17:51:14.768Z,21.40
2022-08-24T17:53:42.422Z,21.30
2022-08-24T17:56:15.771Z,21.20
2022-08-24T17:59:03.068Z,21.30
2022-08-24T18:01:30.945Z,21.20
2022-08-24T18:03:59.397Z,21.20
2022-08-24T18:06:28.778Z,21.20
2022-08-24T18:08:58.321Z,21.10
2022-08-24T18:11:26.770Z,20.80
2022-08-24T18:13:54.708Z,20.50
2022-08-24T18:16:28.390Z,20.40
2022-08-24T18:18:56.905Z,20.20
2022-08-24T18:21:25.205Z,20.00
2022-08-24T18:23:53.006Z,19.90
2022-08-24T18:26:27.750Z,19.80
2022-08-24T18:29:00.454Z,19.70
2022-08-24T18:31:31.481Z,19.60
2022-08-24T18:33:59.144Z,19.50
2022-08-24T18:36:27.795Z,19.40
2022-08-24T18:38:56.493Z,19.30
2022-08-24T18:41:32.454Z,19.20
2022-08-24T18:44:05.374Z,19.10
2022-08-24T18:46:34.730Z,19.10
2022-08-24T18:49:02.565Z,18.90
2022-08-24T18:51:35.954Z,18.90
2022-08-24T18:54:11.258Z,18.80
2022-08-24T18:56:39.561Z,18.70
2022-08-24T18:59:07.293Z,18.60
2022-08-24T19:01:55.650Z,18.60
2022-08-24T19:04:25.807Z,18.40
2022-08-24T19:06:58.922Z,18.40
2022-08-24T19:09:26.340Z,18.30
2022-08-24T19:11:55.498Z,18.20
2022-08-24T19:14:24.521Z,18.10
2022-08-24T19:16:53.099Z,18.10
2022-08-24T19:19:22.977Z,18.00
2022-08-24T19:21:52.466Z,17.90
2022-08-24T19:24:25.292Z,17.90
2022-08-24T19:26:54.734Z,17.80
2022-08-24T19:29:51.809Z,17.70
2022-08-24T19:32:22.298Z,17.70
2022-08-24T19:34:54.629Z,17.60
2022-08-24T19:37:23.745Z,17.50
2022-08-24T19:39:53.187Z,17.50
2022-08-24T19:42:21.752Z,17.40
2022-08-24T19:45:08.659Z,17.40
2022-08-24T19:47:36.438Z,17.40
2022-08-24T19:50:07.925Z,17.30
2022-08-24T19:52:38.001Z,17.20
2022-08-24T19:55:07.561Z,17.10
2022-08-24T19:57:44.155Z,17.00
2022-08-24T20:00:18.740Z,17.10
2022-08-24T20:02:49.869Z,16.90
2022-08-24T20:05:20.741Z,16.90
2022-08-24T20:07:50.436Z,16.80
2022-08-24T20:10:21.837Z,16.80
2022-08-24T20:12:49.783Z,16.70
2022-08-24T20:15:19.395Z,16.70
2022-08-24T20:17:49.421Z,16.60
2022-08-24T20:20:19.981Z,16.60
2022-08-24T20:22:48.127Z,16.50
2022-08-24T20:25:17.369Z,16.40
2022-08-24T20:27:46.998Z,16.40
2022-08-24T20:30:19.711Z,16.40
2022-08-24T20:32:48.019Z,16.30
2022-08-24T20:35:16.314Z,16.20
2022-08-24T20:37:44.058Z,16.20
2022-08-24T20:40:15.382Z,16.10
2022-08-24T20:42:44.345Z,16.10
2022-08-24T20:45:14.003Z,16.00
2022-08-24T20:47:50.661Z,16.00
2022-08-24T20:50:23.608Z,15.90
2022-08-24T20:52:52.793Z,15.80
2022-08-24T20:55:21.822Z,15.60
2022-08-24T20:57:54.341Z,15.70
2022-08-24T21:00:24.057Z,15.70
2022-08-24T21:02:52.380Z,15.70
2022-08-24T21:05:20.388Z,15.70
2022-08-24T21:07:49.758Z,15.60
2022-08-24T21:10:24.911Z,15.60
2022-08-24T21:12:55.606Z,15.60
2022-08-24T21:15:23.908Z,15.40
2022-08-24T21:17:53.671Z,15.40
2022-08-24T21:20:22.014Z,15.40
2022-08-24T21:22:49.679Z,15.40
2022-08-24T21:25:18.069Z,15.30
2022-08-24T21:27:48.485Z,15.30
2022-08-24T21:30:21.840Z,15.30
2022-08-24T21:33:09.626Z,15.20
2022-08-24T21:35:38.537Z,15.20
2022-08-24T21:38:07.814Z,15.10
2022-08-24T21:40:36.987Z,15.10
2022-08-24T21:43:14.532Z,15.10
2022-08-24T21:45:46.198Z,15.00
2022-08-24T21:48:14.644Z,15.00
2022-08-24T21:50:43.246Z,15.00
2022-08-24T21:53:10.500Z,14.90
2022-08-24T21:55:41.332Z,14.90
2022-08-24T21:58:10.904Z,14.90
2022-08-24T22:00:39.360Z,14.90
2022-08-24T22:03:08.690Z,14.80
2022-08-24T22:05:37.320Z,14.60
2022-08-24T22:08:06.458Z,14.60
2022-08-24T22:10:33.440Z,14.70
2022-08-24T22:13:04.279Z,14.70
2022-08-24T22:15:35.380Z,14.70
2022-08-24T22:18:04.514Z,14.70
2022-08-24T22:20:32.844Z,14.70
2022-08-24T22:23:00.544Z,14.70
2022-08-24T22:25:29.807Z,14.70
2022-08-24T22:27:56.735Z,14.70
2022-08-24T22:30:23.697Z,14.70
2022-08-24T22:32:50.778Z,14.60
2022-08-24T22:35:18.468Z,14.60
2022-08-24T22:37:47.821Z,14.60
2022-08-24T22:40:18.976Z,14.60
2022-08-24T22:42:46.938Z,14.60
2022-08-24T22:45:15.688Z,14.60
2022-08-24T22:47:42.601Z,14.60
2022-08-24T22:50:09.738Z,14.60
2022-08-24T22:52:36.770Z,14.70
2022-08-24T22:55:05.680Z,14.70
2022-08-24T22:57:33.871Z,14.60
2022-08-24T23:00:02.285Z,14.50
2022-08-24T23:02:29.973Z,14.40
2022-08-24T23:04:58.264Z,14.40
2022-08-24T23:07:26.988Z,14.50
2022-08-24T23:09:56.343Z,14.50
2022-08-24T23:12:24.467Z,14.50
2022-08-24T23:14:53.237Z,14.50
2022-08-24T23:17:22.517Z,14.40
2022-08-24T23:20:06.374Z,14.40
2022-08-24T23:22:37.753Z,14.40
2022-08-24T23:25:08.942Z,14.50
2022-08-24T23:27:38.501Z,14.50
2022-08-24T23:30:12.352Z,14.50
2022-08-24T23:32:40.588Z,14.40
2022-08-24T23:35:09.006Z,14.40
2022-08-24T23:37:36.825Z,14.50
2022-08-24T23:40:06.207Z,14.50
2022-08-24T23:42:33.321Z,14.50
2022-08-24T23:45:01.054Z,14.50
2022-08-24T23:47:28.971Z,14.40
2022-08-24T23:49:57.481Z,14.50
2022-08-24T23:52:30.328Z,14.50
2022-08-24T23:55:11.592Z,14.50
2022-08-24T23:57:46.476Z,14.50
